createdAt,value
2023-04-17T00:04:54.230Z,64.95
2023-04-17T00:07:36.630Z,62.65
2023-04-17T00:10:15.957Z,67.45
2023-04-17T00:12:47.024Z,68.07
2023-04-17T00:19:34.373Z,69.07
2023-04-17T00:22:09.394Z,68.00
2023-04-17T00:29:06.906Z,66.78
2023-04-17T00:40:18.721Z,67.20
2023-04-17T00:42:53.303Z,72.25
2023-04-17T00:48:09.320Z,67.18
2023-04-17T00:51:51.728Z,66.13
2023-04-17T00:54:25.758Z,64.60
2023-04-17T00:56:56.908Z,61.63
2023-04-17T00:59:42.562Z,65.75
2023-04-17T01:02:42.876Z,59.25
2023-04-17T01:05:19.766Z,60.65
2023-04-17T01:10:40.355Z,55.05
2023-04-17T01:13:16.775Z,55.90
2023-04-17T01:16:21.252Z,60.95
2023-04-17T01:18:54.630Z,65.78
2023-04-17T01:21:24.773Z,60.92
2023-04-17T01:29:27.611Z,61.88
2023-04-17T01:32:04.653Z,65.15
2023-04-17T01:34:38.231Z,64.78
2023-04-17T01:37:09.448Z,63.50
2023-04-17T01:39:36.742Z,70.70
2023-04-17T01:42:07.780Z,67.88
2023-04-17T01:44:36.953Z,69.72
2023-04-17T01:47:19.738Z,63.15
2023-04-17T01:50:00.258Z,61.47
2023-04-17T01:52:28.526Z,68.03
2023-04-17T01:54:57.863Z,61.47
2023-04-17T01:57:26.214Z,64.63
2023-04-17T02:00:19.896Z,66.57
2023-04-17T02:02:47.054Z,65.63
2023-04-17T02:05:18.505Z,70.72
2023-04-17T02:07:53.533Z,62.03
2023-04-17T02:10:20.682Z,62.08
2023-04-17T02:12:48.320Z,69.43
2023-04-17T02:15:16.746Z,68.65
2023-04-17T02:17:44.604Z,64.55
2023-04-17T02:20:12.624Z,72.18
2023-04-17T02:22:43.771Z,65.88
2023-04-17T02:25:12.584Z,73.32
2023-04-17T02:27:50.193Z,73.22
2023-04-17T02:30:18.108Z,68.47
2023-04-17T02:32:50.075Z,63.80
2023-04-17T02:35:18.600Z,76.53
2023-04-17T02:37:46.566Z,67.03
2023-04-17T02:40:14.888Z,66.70
2023-04-17T02:42:42.856Z,63.60
2023-04-17T02:45:12.132Z,71.30
2023-04-17T02:47:42.268Z,69.45
2023-04-17T02:54:37.038Z,73.95
2023-04-17T02:57:11.113Z,70.75
2023-04-17T02:59:39.563Z,73.60
2023-04-17T03:02:08.681Z,72.95
2023-04-17T03:04:48.200Z,75.68
2023-04-17T03:10:03.833Z,77.00
2023-04-17T03:12:44.236Z,79.05
2023-04-17T03:18:11.734Z,79.63
2023-04-17T03:20:42.503Z,79.88
2023-04-17T03:23:11.471Z,74.22
2023-04-17T03:25:41.764Z,78.68
2023-04-17T03:28:09.220Z,81.72
2023-04-17T03:30:38.835Z,78.57
2023-04-17T03:33:10.528Z,75.35
2023-04-17T03:35:44.616Z,75.55
2023-04-17T03:38:11.862Z,76.70
2023-04-17T03:40:42.374Z,74.07
2023-04-17T03:43:15.307Z,86.07
2023-04-17T03:45:42.634Z,100.25
2023-04-17T03:48:09.735Z,86.90
2023-04-17T03:51:00.608Z,92.68
2023-04-17T03:53:52.341Z,83.10
2023-04-17T04:00:46.744Z,72.20
2023-04-17T04:03:33.945Z,60.33
2023-04-17T04:06:02.940Z,67.05
2023-04-17T04:08:31.777Z,69.82
2023-04-17T04:11:14.478Z,65.60
2023-04-17T04:13:42.613Z,65.35
2023-04-17T04:19:04.435Z,58.95
2023-04-17T04:21:34.678Z,62.17
2023-04-17T04:24:05.315Z,58.65
2023-04-17T04:26:33.462Z,60.75
2023-04-17T04:29:01.846Z,66.68
2023-04-17T04:34:58.738Z,70.25
2023-04-17T04:38:03.462Z,65.85
2023-04-17T04:40:38.621Z,69.20
2023-04-17T04:43:08.779Z,68.85
2023-04-17T04:48:15.052Z,71.72
2023-04-17T04:50:42.322Z,67.53
2023-04-17T04:53:13.138Z,69.88
2023-04-17T04:55:54.614Z,77.75
2023-04-17T04:58:23.108Z,74.38
2023-04-17T05:01:00.911Z,75.10
2023-04-17T05:03:38.101Z,73.67
2023-04-17T05:06:12.660Z,93.85
2023-04-17T05:08:48.382Z,81.60
2023-04-17T05:11:17.069Z,84.75
2023-04-17T05:13:44.051Z,75.70
2023-04-17T05:16:27.280Z,68.22
2023-04-17T05:18:59.613Z,80.97
2023-04-17T05:21:55.396Z,75.32
2023-04-17T05:24:56.908Z,80.95
2023-04-17T05:28:21.589Z,68.60
2023-04-17T05:35:14.137Z,63.75
2023-04-17T05:41:57.422Z,64.80
2023-04-17T05:48:54.209Z,63.75
2023-04-17T05:51:27.099Z,56.80
2023-04-17T05:56:31.442Z,61.25
2023-04-17T06:03:27.165Z,56.78
2023-04-17T06:06:11.014Z,64.20
2023-04-17T06:13:16.093Z,55.97
2023-04-17T06:20:16.998Z,54.00
2023-04-17T06:22:47.184Z,55.25
2023-04-17T06:25:18.307Z,57.90
2023-04-17T06:27:48.104Z,53.78
2023-04-17T06:30:21.395Z,52.65
2023-04-17T06:32:58.665Z,48.28
2023-04-17T06:35:31.955Z,51.33
2023-04-17T06:38:09.626Z,50.83
2023-04-17T06:40:40.817Z,50.30
2023-04-17T06:43:14.427Z,52.25
2023-04-17T06:45:43.304Z,46.70
2023-04-17T06:48:11.248Z,47.28
2023-04-17T06:50:39.975Z,52.15
2023-04-17T06:53:09.035Z,46.22
2023-04-17T06:55:36.125Z,51.65
2023-04-17T06:58:06.016Z,58.92
2023-04-17T07:00:37.319Z,58.08
2023-04-17T07:03:09.206Z,58.28
2023-04-17T07:05:36.199Z,145.38
2023-04-17T07:08:12.578Z,56.85
2023-04-17T07:10:52.528Z,52.78
2023-04-17T07:13:19.446Z,49.53
2023-04-17T07:15:57.658Z,53.83
2023-04-17T07:18:36.672Z,54.58
2023-04-17T07:21:04.343Z,53.03
2023-04-17T07:23:33.248Z,54.20
2023-04-17T07:26:04.957Z,62.10
2023-04-17T07:28:34.654Z,54.60
2023-04-17T07:31:09.300Z,66.50
2023-04-17T07:33:48.040Z,59.28
2023-04-17T07:36:16.429Z,59.78
2023-04-17T07:38:44.564Z,56.25
2023-04-17T07:41:13.371Z,48.88
2023-04-17T07:43:43.456Z,49.83
2023-04-17T07:46:11.720Z,41.72
2023-04-17T07:48:41.019Z,49.53
2023-04-17T07:51:10.274Z,53.30
2023-04-17T07:53:40.167Z,50.05
2023-04-17T07:56:34.542Z,52.20
2023-04-17T07:59:06.080Z,46.63
2023-04-17T08:01:38.625Z,55.67
2023-04-17T08:06:36.618Z,56.15
2023-04-17T08:09:05.017Z,51.83
2023-04-17T08:11:42.755Z,56.47
2023-04-17T08:14:17.488Z,61.60
2023-04-17T08:16:47.235Z,55.55
2023-04-17T08:19:14.670Z,54.22
2023-04-17T08:21:45.963Z,55.65
2023-04-17T08:26:41.550Z,55.88
2023-04-17T08:32:00.234Z,54.35
2023-04-17T08:34:39.780Z,51.47
2023-04-17T08:37:11.557Z,56.72
2023-04-17T08:39:43.305Z,55.55
2023-04-17T08:42:17.750Z,55.17
2023-04-17T08:44:47.163Z,60.47
2023-04-17T08:47:29.874Z,58.00
2023-04-17T08:50:15.237Z,52.20
2023-04-17T08:53:00.233Z,55.90
2023-04-17T08:55:31.172Z,52.80
2023-04-17T08:58:11.016Z,51.40
2023-04-17T09:00:48.235Z,50.05
2023-04-17T09:03:40.478Z,47.65
2023-04-17T09:06:15.057Z,46.15
2023-04-17T09:09:00.573Z,50.88
2023-04-17T09:11:32.220Z,47.10
2023-04-17T09:14:01.807Z,45.05
2023-04-17T09:16:34.796Z,49.38
2023-04-17T09:19:08.421Z,61.60
2023-04-17T09:21:35.338Z,50.25
2023-04-17T09:24:02.311Z,50.05
2023-04-17T09:26:33.885Z,50.55
2023-04-17T09:29:23.920Z,48.05
2023-04-17T09:31:51.199Z,49.13
2023-04-17T09:34:25.734Z,50.30
2023-04-17T09:36:54.946Z,50.03
2023-04-17T09:39:27.304Z,54.38
2023-04-17T09:42:06.280Z,59.47
2023-04-17T09:44:37.048Z,50.53
2023-04-17T09:47:08.191Z,53.80
2023-04-17T09:49:56.571Z,58.72
2023-04-17T09:52:26.562Z,54.38
2023-04-17T09:54:54.491Z,54.83
2023-04-17T09:57:22.149Z,55.70
2023-04-17T10:00:03.067Z,60.65
2023-04-17T10:02:34.774Z,50.90
2023-04-17T10:05:03.785Z,55.13
2023-04-17T10:07:46.056Z,51.80
2023-04-17T10:10:30.548Z,57.88
2023-04-17T10:13:08.175Z,58.67
2023-04-17T10:15:39.663Z,54.08
2023-04-17T10:18:24.070Z,60.20
2023-04-17T10:20:55.675Z,53.35
2023-04-17T10:23:37.653Z,55.63
2023-04-17T10:26:29.193Z,52.05
2023-04-17T10:29:01.218Z,48.88
2023-04-17T10:32:09.285Z,52.58
2023-04-17T10:34:52.006Z,49.50
2023-04-17T10:37:20.827Z,53.67
2023-04-17T10:40:11.073Z,51.65
2023-04-17T10:42:40.522Z,51.08
2023-04-17T10:45:20.092Z,48.97
2023-04-17T10:48:01.650Z,48.33
2023-04-17T10:50:32.163Z,51.97
2023-04-17T10:53:04.237Z,54.88
2023-04-17T10:55:49.498Z,53.05
2023-04-17T10:58:21.817Z,50.63
2023-04-17T11:03:33.760Z,51.33
2023-04-17T11:06:07.733Z,50.35
2023-04-17T11:08:35.673Z,48.05
2023-04-17T11:11:02.879Z,51.30
2023-04-17T11:13:37.866Z,48.75
2023-04-17T11:16:07.297Z,45.55
2023-04-17T11:18:38.135Z,44.92
2023-04-17T11:21:15.589Z,43.72
2023-04-17T11:23:56.169Z,41.50
2023-04-17T11:26:25.698Z,45.08
2023-04-17T11:28:53.646Z,45.45
2023-04-17T11:31:23.577Z,50.45
2023-04-17T11:33:54.493Z,45.88
2023-04-17T11:36:24.351Z,41.80
2023-04-17T11:38:55.345Z,43.00
2023-04-17T11:41:22.580Z,46.38
2023-04-17T11:43:54.139Z,44.63
2023-04-17T11:46:23.499Z,43.58
2023-04-17T11:48:52.814Z,40.00
2023-04-17T11:51:23.253Z,41.20
2023-04-17T11:53:53.174Z,40.08
2023-04-17T11:56:27.810Z,41.83
2023-04-17T11:58:59.657Z,34.67
2023-04-17T12:01:28.562Z,38.83
2023-04-17T12:03:59.698Z,37.15
2023-04-17T12:06:38.802Z,40.88
2023-04-17T12:09:18.370Z,37.75
2023-04-17T12:11:45.702Z,39.53
2023-04-17T12:14:17.424Z,38.33
2023-04-17T12:16:50.920Z,41.67
2023-04-17T12:19:19.996Z,37.30
2023-04-17T12:21:49.402Z,44.50
2023-04-17T12:24:22.023Z,43.08
2023-04-17T12:26:56.979Z,40.70
2023-04-17T12:29:56.551Z,43.47
2023-04-17T12:32:24.539Z,36.90
2023-04-17T12:34:53.690Z,42.22
2023-04-17T12:37:22.658Z,37.42
2023-04-17T12:39:51.498Z,38.75
2023-04-17T12:42:19.411Z,36.85
2023-04-17T12:44:48.651Z,40.10
2023-04-17T12:47:21.007Z,42.53
2023-04-17T12:49:48.926Z,39.35
2023-04-17T12:52:15.957Z,39.05
2023-04-17T12:54:45.540Z,45.42
2023-04-17T12:57:12.677Z,39.60
2023-04-17T12:59:39.778Z,39.10
2023-04-17T13:02:07.399Z,42.70
2023-04-17T13:05:02.677Z,38.75
2023-04-17T13:07:30.970Z,39.85
2023-04-17T13:09:58.217Z,42.20
2023-04-17T13:12:26.792Z,38.47
2023-04-17T13:14:54.469Z,41.63
2023-04-17T13:17:58.712Z,44.50
2023-04-17T13:27:30.662Z,36.97
2023-04-17T13:29:59.883Z,41.30
2023-04-17T13:32:33.839Z,38.80
2023-04-17T13:35:05.155Z,35.35
2023-04-17T13:40:07.322Z,39.85
2023-04-17T13:42:34.172Z,39.78
2023-04-17T13:45:07.611Z,36.50
2023-04-17T13:47:40.195Z,36.25
2023-04-17T13:50:09.377Z,40.53
2023-04-17T13:52:36.411Z,36.63
2023-04-17T13:55:56.930Z,41.03
2023-04-17T13:58:26.041Z,38.22
2023-04-17T14:00:55.837Z,40.70
2023-04-17T14:03:26.428Z,39.10
2023-04-17T14:05:56.840Z,37.38
2023-04-17T14:08:30.415Z,37.78
2023-04-17T14:10:58.331Z,38.33
2023-04-17T14:13:33.927Z,37.10
2023-04-17T14:16:03.039Z,40.63
2023-04-17T14:18:39.216Z,38.92
2023-04-17T14:21:10.846Z,39.50
2023-04-17T14:23:39.949Z,39.50
2023-04-17T14:26:11.193Z,39.38
2023-04-17T14:28:41.474Z,37.70
2023-04-17T14:31:18.311Z,37.38
2023-04-17T14:33:51.280Z,38.53
2023-04-17T14:36:18.951Z,39.00
2023-04-17T14:38:53.963Z,41.40
2023-04-17T14:41:23.883Z,38.95
2023-04-17T14:43:51.702Z,39.28
2023-04-17T14:46:19.084Z,38.80
2023-04-17T14:48:54.747Z,40.80
2023-04-17T14:51:27.037Z,37.92
2023-04-17T14:54:00.009Z,41.17
2023-04-17T14:56:28.087Z,35.25
2023-04-17T14:59:08.389Z,35.85
2023-04-17T15:01:44.274Z,35.95
2023-04-17T15:04:12.740Z,36.72
2023-04-17T15:06:40.653Z,34.25
2023-04-17T15:09:09.428Z,35.00
2023-04-17T15:11:38.459Z,33.22
2023-04-17T15:14:18.368Z,33.67
2023-04-17T15:17:01.612Z,38.53
2023-04-17T15:19:32.240Z,36.88
2023-04-17T15:22:03.589Z,38.03
2023-04-17T15:24:31.504Z,40.33
2023-04-17T15:26:59.529Z,32.75
2023-04-17T15:29:30.225Z,35.50
2023-04-17T15:32:02.708Z,37.67
2023-04-17T15:37:02.185Z,32.83
2023-04-17T15:43:53.333Z,36.20
2023-04-17T15:46:21.670Z,37.60
2023-04-17T15:52:32.575Z,37.00
2023-04-17T15:55:11.029Z,38.55
2023-04-17T15:57:52.413Z,36.70
2023-04-17T16:00:20.532Z,36.20
2023-04-17T16:03:02.276Z,62.40
2023-04-17T16:05:34.437Z,35.05
2023-04-17T16:08:07.382Z,34.90
2023-04-17T16:10:37.212Z,33.70
2023-04-17T16:13:09.416Z,37.47
2023-04-17T16:15:38.365Z,37.67
2023-04-17T16:18:07.234Z,33.95
2023-04-17T16:20:36.107Z,37.92
2023-04-17T16:23:14.190Z,38.30
2023-04-17T16:25:41.771Z,39.60
2023-04-17T16:28:09.269Z,35.17
2023-04-17T16:30:37.108Z,44.80
2023-04-17T16:33:08.361Z,40.20
2023-04-17T16:35:41.028Z,34.00
2023-04-17T16:38:12.188Z,38.38
2023-04-17T16:40:39.669Z,41.45
2023-04-17T16:43:09.375Z,31.92
2023-04-17T16:45:37.452Z,34.45
2023-04-17T16:48:08.609Z,35.78
2023-04-17T16:50:40.173Z,35.20
2023-04-17T16:53:11.511Z,34.75
2023-04-17T16:55:38.907Z,34.70
2023-04-17T16:58:06.167Z,35.97
2023-04-17T17:00:40.908Z,33.47
2023-04-17T17:05:58.635Z,35.80
2023-04-17T17:11:22.847Z,27.55
2023-04-17T17:13:50.926Z,32.38
2023-04-17T17:16:22.889Z,29.50
2023-04-17T17:18:53.760Z,30.13
2023-04-17T17:21:24.171Z,29.25
2023-04-17T17:23:54.001Z,26.30
2023-04-17T17:26:27.067Z,30.92
2023-04-17T17:28:55.564Z,30.70
2023-04-17T17:31:22.459Z,26.15
2023-04-17T17:33:52.839Z,34.45
2023-04-17T17:38:59.146Z,28.75
2023-04-17T17:41:31.916Z,33.47
2023-04-17T17:44:01.189Z,27.63
2023-04-17T17:46:32.962Z,52.83
2023-04-17T17:49:13.094Z,31.87
2023-04-17T17:51:44.766Z,34.92
2023-04-17T17:54:13.136Z,30.20
2023-04-17T17:56:41.735Z,35.75
2023-04-17T17:59:14.489Z,29.30
2023-04-17T18:02:11.634Z,33.72
2023-04-17T18:04:43.249Z,29.95
2023-04-17T18:07:13.489Z,32.67
2023-04-17T18:09:50.853Z,35.33
2023-04-17T18:16:20.128Z,31.80
2023-04-17T18:21:36.800Z,28.77
2023-04-17T18:24:56.960Z,33.08
2023-04-17T18:33:39.405Z,31.10
2023-04-17T18:36:14.275Z,27.88
2023-04-17T18:38:58.625Z,32.05
2023-04-17T18:41:30.878Z,30.67
2023-04-17T18:46:46.877Z,31.33
2023-04-17T18:49:21.443Z,26.42
2023-04-17T18:51:49.238Z,26.90
2023-04-17T18:54:21.451Z,30.80
2023-04-17T18:56:53.064Z,34.47
2023-04-17T18:59:26.015Z,29.48
2023-04-17T19:01:58.173Z,27.67
2023-04-17T19:04:27.027Z,27.17
2023-04-17T19:07:07.180Z,29.63
2023-04-17T19:09:34.919Z,30.85
2023-04-17T19:14:47.083Z,28.08
2023-04-17T19:17:22.876Z,30.98
2023-04-17T19:23:03.177Z,27.27
2023-04-17T19:25:56.679Z,26.90
2023-04-17T19:28:36.265Z,26.85
2023-04-17T19:31:04.170Z,26.10
2023-04-17T19:39:44.862Z,28.70
2023-04-17T19:42:16.494Z,28.30
2023-04-17T19:45:44.740Z,30.60
2023-04-17T19:58:23.467Z,30.02
2023-04-17T20:06:19.147Z,26.88
2023-04-17T20:09:09.107Z,26.73
2023-04-17T20:11:46.945Z,22.65
2023-04-17T20:17:13.768Z,26.27
2023-04-17T20:19:56.267Z,24.48
2023-04-17T20:22:31.445Z,25.35
2023-04-17T20:27:45.407Z,25.58
2023-04-17T20:30:22.173Z,29.55
2023-04-17T20:35:36.429Z,26.15
2023-04-17T20:38:03.650Z,26.08
2023-04-17T20:40:30.845Z,25.00
2023-04-17T20:43:01.659Z,27.05
2023-04-17T20:45:29.221Z,33.33
2023-04-17T20:47:59.732Z,29.63
2023-04-17T20:50:31.232Z,29.38
2023-04-17T20:53:00.389Z,34.10
2023-04-17T20:55:28.924Z,31.02
2023-04-17T20:57:57.026Z,31.20
2023-04-17T21:00:27.249Z,37.88
2023-04-17T21:03:49.101Z,33.97
2023-04-17T21:06:32.497Z,38.50
2023-04-17T21:11:47.007Z,34.92
2023-04-17T21:14:26.383Z,37.03
2023-04-17T21:17:05.180Z,37.10
2023-04-17T21:19:36.779Z,36.88
2023-04-17T21:22:05.356Z,40.65
2023-04-17T21:24:34.013Z,40.50
2023-04-17T21:27:02.506Z,36.53
2023-04-17T21:29:53.025Z,37.78
2023-04-17T21:32:23.509Z,39.25
2023-04-17T21:34:51.708Z,37.08
2023-04-17T21:37:22.509Z,39.42
2023-04-17T21:40:14.639Z,46.65
2023-04-17T21:42:43.065Z,42.10
2023-04-17T21:45:12.121Z,42.90
2023-04-17T21:47:45.055Z,40.65
2023-04-17T21:53:03.736Z,43.60
2023-04-17T21:55:32.384Z,47.15
2023-04-17T21:58:06.481Z,45.88
2023-04-17T22:00:36.163Z,45.70
2023-04-17T22:03:04.725Z,43.35
2023-04-17T22:05:42.432Z,47.65
2023-04-17T22:08:11.978Z,45.80
2023-04-17T22:10:40.030Z,46.47
2023-04-17T22:13:10.265Z,44.40
2023-04-17T22:15:41.215Z,49.58
2023-04-17T22:18:37.576Z,47.67
2023-04-17T22:21:11.387Z,49.13
2023-04-17T22:23:40.987Z,48.85
2023-04-17T22:26:08.791Z,48.13
2023-04-17T22:28:38.813Z,50.47
2023-04-17T22:31:16.915Z,49.00
2023-04-17T22:33:43.988Z,45.05
2023-04-17T22:38:56.498Z,49.88
2023-04-17T22:41:29.164Z,47.15
2023-04-17T22:43:56.379Z,45.70
2023-04-17T22:46:25.381Z,50.05
2023-04-17T22:48:57.871Z,47.00
2023-04-17T22:51:33.500Z,47.13
2023-04-17T22:54:15.251Z,51.13
2023-04-17T22:56:47.053Z,47.35
2023-04-17T22:59:14.951Z,46.95
2023-04-17T23:01:45.732Z,49.30
2023-04-17T23:04:16.902Z,49.33
2023-04-17T23:06:51.603Z,50.28
2023-04-17T23:09:27.987Z,46.88
2023-04-17T23:11:56.065Z,44.40
2023-04-17T23:14:26.280Z,45.08
2023-04-17T23:16:59.145Z,46.58
2023-04-17T23:22:40.312Z,49.13
2023-04-17T23:25:09.006Z,45.33
2023-04-17T23:27:36.568Z,44.47
2023-04-17T23:30:04.897Z,45.65
2023-04-17T23:32:34.308Z,46.42
2023-04-17T23:35:03.478Z,47.50
2023-04-17T23:37:32.004Z,46.10
2023-04-17T23:40:01.737Z,50.00
2023-04-17T23:42:28.670Z,48.85
2023-04-17T23:44:58.051Z,50.38
2023-04-17T23:47:27.883Z,48.97
2023-04-17T23:50:00.966Z,47.05
2023-04-17T23:53:22.153Z,48.22
2023-04-17T23:55:49.207Z,47.85
2023-04-17T23:58:43.675Z,49.28
